Time;durP1;ratioP1;P1;durP2;ratioP2;P2;SDS_P1;SDS_P2;PMS_P1;PMS_P2;Temp;Humidity;BMP_temperature;BMP_pressure;BME280_temperature;BME280_humidity;BME280_pressure;Samples;Min_cycle;Max_cycle;Signal;HPM_P1;HPM_P2
2023/05/19 00:01:53;;;;;;;12.00;6.20;;;;;;;7.23;100.00;99472.63;105051;1258;99189;-68
2023/05/19 00:04:21;;;;;;;11.80;6.20;;;;;;;7.22;100.00;99472.69;104994;1260;98415;-65
2023/05/19 00:06:50;;;;;;;10.10;5.80;;;;;;;7.23;100.00;99471.21;104940;1260;111503;-66
2023/05/19 00:09:18;;;;;;;9.50;5.90;;;;;;;7.24;100.00;99473.02;105120;1254;99114;-66
2023/05/19 00:11:45;;;;;;;11.90;5.80;;;;;;;7.25;100.00;99470.77;104985;1259;98065;-67
2023/05/19 00:14:13;;;;;;;8.30;6.00;;;;;;;7.25;100.00;99463.46;104862;1261;98074;-67
2023/05/19 00:16:41;;;;;;;10.10;6.30;;;;;;;7.25;100.00;99458.40;104827;1260;99761;-67
2023/05/19 00:19:11;;;;;;;10.70;5.90;;;;;;;7.26;100.00;99456.61;104785;1261;110541;-67
2023/05/19 00:21:38;;;;;;;10.10;6.10;;;;;;;7.24;100.00;99453.01;105148;1254;99789;-68
2023/05/19 00:24:06;;;;;;;10.40;6.00;;;;;;;7.25;100.00;99451.04;105091;1258;99181;-68
2023/05/19 00:26:33;;;;;;;9.50;5.80;;;;;;;7.25;100.00;99448.15;105109;1257;97950;-68
2023/05/19 00:29:00;;;;;;;7.90;5.40;;;;;;;7.25;100.00;99448.38;105091;1256;97887;-70
2023/05/19 00:31:27;;;;;;;10.50;6.60;;;;;;;7.26;100.00;99448.11;105006;1271;97979;-69
2023/05/19 00:33:54;;;;;;;10.40;6.20;;;;;;;7.27;100.00;99444.83;105063;1258;97915;-68
2023/05/19 00:36:21;;;;;;;8.90;6.20;;;;;;;7.26;100.00;99443.19;104948;1260;97987;-68
2023/05/19 00:38:49;;;;;;;8.60;5.60;;;;;;;7.24;100.00;99439.96;105050;1254;99251;-68
2023/05/19 00:41:17;;;;;;;9.00;5.50;;;;;;;7.23;100.00;99436.38;105020;1260;98385;-69
2023/05/19 00:43:44;;;;;;;10.00;6.00;;;;;;;7.20;100.00;99435.23;105002;1257;98314;-68
2023/05/19 00:46:11;;;;;;;10.80;5.50;;;;;;;7.17;100.00;99431.69;105057;1257;99092;-68
2023/05/19 00:48:38;;;;;;;8.40;5.80;;;;;;;7.15;100.00;99431.09;105056;1267;97934;-68
2023/05/19 00:51:06;;;;;;;10.40;5.90;;;;;;;7.15;100.00;99434.41;105019;1270;97988;-68
2023/05/19 00:53:34;;;;;;;9.80;5.40;;;;;;;7.15;100.00;99428.58;105013;1259;98389;-68
2023/05/19 00:56:02;;;;;;;10.50;5.80;;;;;;;7.15;100.00;99421.66;105138;1257;99224;-70
2023/05/19 00:58:31;;;;;;;10.70;6.10;;;;;;;7.13;100.00;99415.01;105090;1254;98018;-70
2023/05/19 01:01:02;;;;;;;9.60;5.60;;;;;;;7.12;100.00;99408.90;105030;1263;107134;-67
2023/05/19 01:03:34;;;;;;;11.60;5.80;;;;;;;7.10;100.00;99410.15;105087;1254;97994;-67
2023/05/19 01:06:05;;;;;;;9.70;6.10;;;;;;;7.09;100.00;99409.33;105139;1260;97928;-67
2023/05/19 01:08:35;;;;;;;10.80;6.00;;;;;;;7.08;100.00;99406.33;105141;1258;112248;-67
2023/05/19 01:11:04;;;;;;;10.10;5.90;;;;;;;7.07;100.00;99403.60;105061;1253;99518;-67
2023/05/19 01:13:32;;;;;;;8.20;5.60;;;;;;;7.03;100.00;99400.39;105125;1267;108514;-67
2023/05/19 01:16:23;;;;;;;12.20;6.60;;;;;;;7.02;100.00;99397.92;104806;1270;98072;-66
2023/05/19 01:19:21;;;;;;;10.90;6.20;;;;;;;7.03;100.00;99397.49;104949;1267;99114;-66
2023/05/19 01:22:13;;;;;;;14.30;6.00;;;;;;;7.01;100.00;99395.68;104931;1263;111493;-66
2023/05/19 01:25:10;;;;;;;10.20;5.90;;;;;;;7.01;100.00;99408.77;105071;1258;99352;-67
2023/05/19 01:27:58;;;;;;;9.80;5.80;;;;;;;6.99;100.00;99402.67;104987;1260;108033;-67
2023/05/19 01:30:43;;;;;;;9.60;5.50;;;;;;;6.98;100.00;99398.84;104900;1261;97987;-67
2023/05/19 01:33:13;;;;;;;9.40;6.00;;;;;;;7.00;100.00;99401.36;105068;1267;98462;-66
2023/05/19 01:35:42;;;;;;;11.60;6.70;;;;;;;7.00;100.00;99410.25;104859;1267;110337;-66
2023/05/19 01:38:11;;;;;;;8.90;6.00;;;;;;;7.04;100.00;99411.45;104854;1261;99407;-66
2023/05/19 01:40:40;;;;;;;11.70;6.60;;;;;;;7.05;100.00;99413.20;105035;1257;108606;-66
2023/05/19 01:43:12;;;;;;;9.50;5.90;;;;;;;7.06;100.00;99412.65;104875;1266;99084;-67
2023/05/19 01:45:41;;;;;;;9.40;5.70;;;;;;;7.08;100.00;99406.88;105096;1254;98507;-68
2023/05/19 01:48:08;;;;;;;9.60;5.80;;;;;;;7.06;100.00;99405.14;105167;1255;111828;-67
2023/05/19 01:50:37;;;;;;;10.40;6.40;;;;;;;7.05;100.00;99402.89;104945;1267;99725;-67
2023/05/19 01:53:04;;;;;;;8.90;5.90;;;;;;;7.04;100.00;99399.17;105149;1257;108044;-67
2023/05/19 01:55:31;;;;;;;12.00;7.30;;;;;;;7.03;100.00;99401.31;105013;1254;97880;-67
2023/05/19 01:58:25;;;;;;;9.10;6.30;;;;;;;7.05;100.00;99397.82;104963;1259;99228;-67
2023/05/19 02:00:56;;;;;;;8.10;5.20;;;;;;;7.06;100.00;99397.94;104879;1262;110763;-66
2023/05/19 02:03:43;;;;;;;10.10;6.50;;;;;;;7.05;100.00;99397.39;105129;1260;99317;-66
2023/05/19 02:06:39;;;;;;;11.00;6.30;;;;;;;7.06;100.00;99397.83;104973;1255;108706;-66
2023/05/19 02:09:32;;;;;;;10.80;6.70;;;;;;;7.06;100.00;99393.52;105045;1261;99276;-66
2023/05/19 02:12:27;;;;;;;12.30;6.10;;;;;;;7.05;100.00;99391.16;104946;1267;98530;-66
2023/05/19 02:15:08;;;;;;;11.50;6.30;;;;;;;7.04;100.00;99386.48;104828;1276;111859;-66
2023/05/19 02:17:40;;;;;;;11.00;6.30;;;;;;;7.02;100.00;99383.27;105080;1257;99123;-68
2023/05/19 02:20:08;;;;;;;11.40;6.30;;;;;;;7.02;100.00;99380.11;104798;1263;107570;-70
2023/05/19 02:22:35;;;;;;;8.50;6.10;;;;;;;7.01;100.00;99381.80;105041;1260;98043;-66
2023/05/19 02:25:02;;;;;;;10.90;6.70;;;;;;;7.02;100.00;99383.32;105127;1257;97893;-66
2023/05/19 02:27:30;;;;;;;10.40;6.10;;;;;;;7.03;100.00;99383.65;105133;1257;98798;-66
2023/05/19 02:29:57;;;;;;;9.70;5.90;;;;;;;7.02;100.00;99379.23;105140;1269;97988;-66
2023/05/19 02:32:24;;;;;;;10.00;6.40;;;;;;;7.03;100.00;99378.96;105171;1267;97908;-66
2023/05/19 02:34:52;;;;;;;11.20;6.40;;;;;;;7.03;100.00;99375.85;105104;1257;99224;-66
2023/05/19 02:37:22;;;;;;;10.70;5.90;;;;;;;7.00;100.00;99371.56;105130;1267;97886;-66
2023/05/19 02:39:50;;;;;;;9.00;5.00;;;;;;;6.98;100.00;99362.77;104877;1260;111428;-66
2023/05/19 02:42:17;;;;;;;9.50;5.90;;;;;;;6.97;100.00;99355.48;105085;1259;98665;-65
2023/05/19 02:44:56;;;;;;;9.10;5.90;;;;;;;6.94;100.00;99347.20;105072;1268;106975;-66
2023/05/19 02:47:23;;;;;;;10.60;6.10;;;;;;;6.92;100.00;99349.64;104963;1254;97909;-67
2023/05/19 02:49:50;;;;;;;9.70;6.00;;;;;;;6.90;100.00;99349.10;104987;1276;97886;-66
2023/05/19 02:52:17;;;;;;;10.80;6.30;;;;;;;6.90;100.00;99354.27;104989;1257;97892;-66
2023/05/19 02:54:44;;;;;;;9.10;6.60;;;;;;;6.92;100.00;99360.81;104881;1256;98811;-66
2023/05/19 02:57:11;;;;;;;11.10;7.00;;;;;;;6.95;100.00;99359.02;105122;1254;97995;-66
2023/05/19 02:59:38;;;;;;;12.70;6.90;;;;;;;6.99;100.00;99363.65;105051;1258;97901;-67
2023/05/19 03:02:05;;;;;;;10.30;6.80;;;;;;;7.06;100.00;99365.89;105048;1257;97909;-66
2023/05/19 03:04:40;;;;;;;12.50;6.90;;;;;;;7.11;100.00;99373.52;105101;1259;98013;-66
2023/05/19 03:07:14;;;;;;;11.00;6.90;;;;;;;7.15;100.00;99372.85;105107;1257;108659;-66
2023/05/19 03:09:41;;;;;;;11.30;5.80;;;;;;;7.16;100.00;99374.45;104850;1257;98085;-66
2023/05/19 03:12:08;;;;;;;10.70;5.90;;;;;;;7.15;100.00;99373.85;105051;1257;97934;-66
2023/05/19 03:14:37;;;;;;;9.80;5.70;;;;;;;7.14;100.00;99378.37;105136;1255;99188;-66
2023/05/19 03:17:06;;;;;;;9.20;5.80;;;;;;;7.11;100.00;99374.83;105036;1260;99227;-67
2023/05/19 03:19:34;;;;;;;12.40;6.50;;;;;;;7.08;100.00;99372.91;105025;1258;108677;-66
2023/05/19 03:22:01;;;;;;;9.40;6.10;;;;;;;7.06;100.00;99369.87;105143;1259;97895;-67
2023/05/19 03:24:28;;;;;;;8.20;5.40;;;;;;;7.06;100.00;99368.29;105152;1260;99214;-67
2023/05/19 03:26:55;;;;;;;13.30;7.00;;;;;;;7.07;100.00;99370.73;105049;1260;97918;-67
2023/05/19 03:29:22;;;;;;;11.00;6.30;;;;;;;7.10;100.00;99377.77;105051;1254;97970;-67
2023/05/19 03:31:50;;;;;;;11.00;6.90;;;;;;;7.14;100.00;99380.66;105170;1270;97982;-66
2023/05/19 03:34:18;;;;;;;11.40;6.80;;;;;;;7.13;100.00;99381.35;105160;1257;97903;-66
2023/05/19 03:36:47;;;;;;;10.30;5.90;;;;;;;7.15;100.00;99382.35;105040;1257;97956;-67
2023/05/19 03:39:15;;;;;;;8.90;6.00;;;;;;;7.16;100.00;99380.28;105049;1258;112052;-70
2023/05/19 03:41:55;;;;;;;11.30;6.00;;;;;;;7.16;100.00;99384.58;105117;1258;99257;-70
2023/05/19 03:44:22;;;;;;;11.10;5.90;;;;;;;7.17;100.00;99384.96;105090;1254;108540;-66
2023/05/19 03:46:49;;;;;;;10.20;6.40;;;;;;;7.22;100.00;99385.45;105095;1271;97898;-66
2023/05/19 03:49:16;;;;;;;10.70;7.10;;;;;;;7.24;100.00;99384.09;105046;1271;97890;-68
2023/05/19 03:51:43;;;;;;;12.10;6.70;;;;;;;7.24;100.00;99386.87;105095;1259;98710;-67
2023/05/19 03:54:10;;;;;;;10.70;7.00;;;;;;;7.26;100.00;99388.52;105174;1264;97962;-66
2023/05/19 03:56:38;;;;;;;10.10;6.80;;;;;;;7.29;100.00;99384.52;105216;1257;98336;-67
2023/05/19 03:59:06;;;;;;;10.20;6.60;;;;;;;7.29;100.00;99383.70;105177;1270;98014;-67
2023/05/19 04:01:33;;;;;;;8.40;5.00;;;;;;;7.31;100.00;99380.05;105123;1254;97966;-67
2023/05/19 04:04:00;;;;;;;14.50;7.10;;;;;;;7.29;100.00;99382.45;105050;1254;97905;-67
2023/05/19 04:06:27;;;;;;;11.90;7.70;;;;;;;7.31;100.00;99381.08;105145;1259;98951;-67
2023/05/19 04:08:54;;;;;;;9.10;6.40;;;;;;;7.34;100.00;99379.50;105182;1257;97915;-67
2023/05/19 04:11:21;;;;;;;10.70;7.30;;;;;;;7.35;100.00;99383.31;105167;1267;97909;-67
2023/05/19 04:13:48;;;;;;;10.40;6.10;;;;;;;7.39;100.00;99388.94;105089;1260;97902;-67
2023/05/19 04:16:16;;;;;;;9.80;6.90;;;;;;;7.40;100.00;99392.48;105203;1257;98389;-67
2023/05/19 04:18:44;;;;;;;11.10;6.90;;;;;;;7.42;100.00;99393.67;105052;1263;108192;-67
2023/05/19 04:21:12;;;;;;;9.50;6.20;;;;;;;7.47;100.00;99398.02;105213;1260;97922;-67
2023/05/19 04:23:39;;;;;;;10.00;6.10;;;;;;;7.49;100.00;99396.22;105139;1260;98811;-67
2023/05/19 04:26:06;;;;;;;11.70;5.80;;;;;;;7.52;100.00;99392.61;105215;1257;98005;-67
2023/05/19 04:28:35;;;;;;;12.10;6.20;;;;;;;7.56;100.00;99388.19;105362;1260;98130;-67
2023/05/19 04:31:02;;;;;;;10.10;6.10;;;;;;;7.58;100.00;99391.08;104821;1270;108338;-67
2023/05/19 04:33:29;;;;;;;12.30;6.70;;;;;;;7.61;100.00;99392.94;105097;1256;97870;-66
2023/05/19 04:35:57;;;;;;;9.40;5.40;;;;;;;7.63;100.00;99394.52;105110;1256;98329;-66
2023/05/19 04:38:24;;;;;;;10.20;6.30;;;;;;;7.66;100.00;99395.05;104775;1273;98686;-68
2023/05/19 04:40:51;;;;;;;10.20;7.00;;;;;;;7.69;100.00;99396.95;105116;1261;98337;-67
2023/05/19 04:43:18;;;;;;;7.80;4.40;;;;;;;7.69;100.00;99393.58;105083;1256;97892;-67
2023/05/19 04:45:48;;;;;;;8.20;4.90;;;;;;;7.69;100.00;99389.65;105211;1257;98017;-67
2023/05/19 04:48:15;;;;;;;14.00;7.30;;;;;;;7.67;100.00;99391.06;105130;1264;98469;-67
2023/05/19 04:50:43;;;;;;;18.00;9.60;;;;;;;7.68;100.00;99393.25;105091;1256;98859;-67
2023/05/19 04:53:10;;;;;;;13.20;7.40;;;;;;;7.73;100.00;99396.55;105043;1258;99240;-67
2023/05/19 04:55:37;;;;;;;11.60;6.60;;;;;;;7.77;100.00;99403.10;105019;1268;97829;-67
2023/05/19 04:58:05;;;;;;;13.60;6.60;;;;;;;7.83;100.00;99399.59;105071;1271;97985;-68
2023/05/19 05:00:34;;;;;;;10.60;6.30;;;;;;;7.84;100.00;99395.83;105056;1260;99193;-68
2023/05/19 05:03:05;;;;;;;12.80;6.50;;;;;;;7.86;100.00;99390.48;104923;1271;111730;-68
2023/05/19 05:05:33;;;;;;;13.10;6.60;;;;;;;7.88;100.00;99395.42;105057;1258;98359;-73
2023/05/19 05:08:00;;;;;;;12.20;7.20;;;;;;;7.92;100.00;99397.22;105152;1276;108576;-67
2023/05/19 05:10:27;;;;;;;8.90;6.20;;;;;;;7.98;100.00;99402.29;105182;1254;97986;-67
2023/05/19 05:12:55;;;;;;;14.40;8.30;;;;;;;8.06;100.00;99406.18;104998;1276;99314;-67
2023/05/19 05:15:23;;;;;;;18.50;8.60;;;;;;;8.17;100.00;99409.41;105051;1257;98022;-67
2023/05/19 05:17:50;;;;;;;18.50;7.70;;;;;;;8.27;100.00;99409.98;104920;1260;97983;-67
2023/05/19 05:20:18;;;;;;;12.40;7.00;;;;;;;8.33;100.00;99407.77;104950;1260;97937;-67
2023/05/19 05:22:46;;;;;;;11.60;6.90;;;;;;;8.35;100.00;99403.45;104906;1269;97903;-67
2023/05/19 05:25:15;;;;;;;9.80;6.20;;;;;;;8.41;100.00;99405.01;105293;1272;98407;-68
2023/05/19 05:27:41;;;;;;;9.90;5.40;;;;;;;8.47;100.00;99406.29;105037;1261;112793;-68
2023/05/19 05:30:09;;;;;;;14.30;6.60;;;;;;;8.46;100.00;99408.27;104986;1260;98788;-67
2023/05/19 05:32:36;;;;;;;9.80;6.20;;;;;;;8.44;100.00;99406.69;105057;1269;97978;-69
2023/05/19 05:35:04;;;;;;;8.40;5.20;;;;;;;8.47;100.00;99405.36;105113;1260;99185;-70
2023/05/19 05:37:31;;;;;;;10.00;5.00;;;;;;;8.57;100.00;99407.30;105094;1260;97967;-68
2023/05/19 05:39:58;;;;;;;9.70;5.40;;;;;;;8.68;100.00;99403.84;105128;1260;99214;-69
2023/05/19 05:42:25;;;;;;;9.00;5.20;;;;;;;8.81;100.00;99406.08;105064;1267;97941;-68
2023/05/19 05:44:55;;;;;;;9.30;5.20;;;;;;;8.97;100.00;99406.50;105009;1257;108692;-68
2023/05/19 05:47:22;;;;;;;10.30;4.60;;;;;;;9.06;100.00;99407.97;105008;1260;99189;-67
2023/05/19 05:49:50;;;;;;;5.90;3.50;;;;;;;9.03;100.00;99414.45;105194;1254;99050;-68
2023/05/19 05:52:21;;;;;;;12.30;5.00;;;;;;;8.99;100.00;99409.06;105026;1260;111213;-68
2023/05/19 05:54:49;;;;;;;7.70;4.80;;;;;;;8.99;100.00;99409.23;104892;1275;97864;-68
2023/05/19 05:57:16;;;;;;;7.40;3.80;;;;;;;9.05;100.00;99411.48;105114;1264;108466;-68
2023/05/19 05:59:45;;;;;;;6.70;4.70;;;;;;;9.05;100.00;99414.22;105132;1260;99205;-67
2023/05/19 06:02:13;;;;;;;7.90;4.60;;;;;;;9.11;100.00;99412.63;104943;1262;99093;-67
2023/05/19 06:04:40;;;;;;;7.30;4.70;;;;;;;9.19;100.00;99418.59;105113;1269;97923;-67
2023/05/19 06:07:07;;;;;;;7.50;4.40;;;;;;;9.21;99.91;99416.99;105133;1254;97923;-67
2023/05/19 06:09:35;;;;;;;10.40;4.70;;;;;;;9.25;100.00;99418.16;104929;1267;97880;-67
2023/05/19 06:12:03;;;;;;;8.50;5.20;;;;;;;9.40;100.00;99417.88;105143;1255;97902;-68
2023/05/19 06:14:30;;;;;;;8.60;3.90;;;;;;;9.52;99.86;99413.16;105062;1259;99189;-66
2023/05/19 06:16:56;;;;;;;5.80;3.30;;;;;;;9.52;98.82;99408.84;104978;1257;98023;-67
2023/05/19 06:19:25;;;;;;;5.20;3.40;;;;;;;9.48;98.47;99412.55;105247;1260;99214;-67
2023/05/19 06:21:53;;;;;;;6.80;4.30;;;;;;;9.51;99.22;99413.95;104829;1262;107798;-67
2023/05/19 06:24:20;;;;;;;5.40;3.10;;;;;;;9.55;99.03;99419.98;105135;1260;99193;-68
2023/05/19 06:26:47;;;;;;;7.30;4.50;;;;;;;9.53;98.81;99424.27;105059;1270;97890;-68
2023/05/19 06:29:15;;;;;;;5.70;3.80;;;;;;;9.54;98.63;99427.27;105225;1257;97947;-67
2023/05/19 06:31:42;;;;;;;4.40;2.20;;;;;;;9.54;97.61;99427.60;105230;1258;97905;-67
2023/05/19 06:34:11;;;;;;;6.10;3.50;;;;;;;9.50;96.40;99429.98;105150;1266;98015;-67
2023/05/19 06:36:40;;;;;;;4.60;2.80;;;;;;;9.51;97.66;99427.40;104988;1267;218605;-67
2023/05/19 06:39:07;;;;;;;5.20;3.40;;;;;;;9.57;98.40;99431.58;105065;1262;99401;-67
2023/05/19 06:41:34;;;;;;;6.60;4.00;;;;;;;9.56;97.65;99424.95;105124;1267;98251;-67
2023/05/19 06:44:03;;;;;;;8.10;4.60;;;;;;;9.52;97.90;99425.75;105149;1260;98781;-66
2023/05/19 06:46:30;;;;;;;10.10;4.80;;;;;;;9.51;97.55;99428.72;105151;1257;108401;-67
2023/05/19 06:48:57;;;;;;;10.50;5.00;;;;;;;9.50;97.73;99431.75;105142;1256;97943;-67
2023/05/19 06:51:36;;;;;;;11.30;5.00;;;;;;;9.52;97.84;99432.87;105156;1258;99177;-67
2023/05/19 06:54:03;;;;;;;10.30;4.60;;;;;;;9.57;97.63;99432.98;105107;1264;98344;-67
2023/05/19 06:56:30;;;;;;;8.90;4.90;;;;;;;9.60;97.54;99437.99;105168;1257;98578;-67
2023/05/19 06:58:57;;;;;;;9.70;4.90;;;;;;;9.54;96.79;99440.24;105158;1260;98005;-67
2023/05/19 07:01:26;;;;;;;8.60;5.00;;;;;;;9.47;96.99;99439.38;105148;1257;98721;-66
2023/05/19 07:03:53;;;;;;;9.60;4.80;;;;;;;9.45;97.53;99436.27;105188;1261;99116;-66
2023/05/19 07:06:20;;;;;;;10.00;6.10;;;;;;;9.47;97.75;99436.25;105198;1258;98608;-67
2023/05/19 07:08:48;;;;;;;10.10;5.10;;;;;;;9.50;97.85;99433.81;105203;1257;98941;-67
2023/05/19 07:11:16;;;;;;;9.10;5.40;;;;;;;9.55;97.57;99432.95;104944;1260;108439;-67
2023/05/19 07:13:44;;;;;;;9.80;5.00;;;;;;;9.57;97.43;99430.52;104949;1263;97963;-67
2023/05/19 07:16:10;;;;;;;8.20;5.10;;;;;;;9.61;97.09;99428.79;105113;1260;97872;-68
2023/05/19 07:18:38;;;;;;;11.70;5.70;;;;;;;9.60;96.54;99430.11;105198;1268;97912;-66
2023/05/19 07:21:06;;;;;;;8.60;5.90;;;;;;;9.61;96.47;99430.48;105131;1260;99499;-68
2023/05/19 07:23:33;;;;;;;9.70;5.70;;;;;;;9.68;97.23;99429.33;105166;1260;97912;-67
2023/05/19 07:26:00;;;;;;;10.10;5.10;;;;;;;9.77;96.89;99427.27;105142;1260;99214;-67
2023/05/19 07:28:27;;;;;;;10.80;6.70;;;;;;;9.77;96.37;99425.13;105199;1259;97936;-67
2023/05/19 07:30:55;;;;;;;8.90;5.10;;;;;;;9.79;96.65;99424.34;105200;1258;98537;-68
2023/05/19 07:33:22;;;;;;;9.80;6.30;;;;;;;9.86;95.85;99430.52;105029;1260;97986;-67
2023/05/19 07:35:49;;;;;;;13.80;6.30;;;;;;;9.88;95.22;99429.98;105170;1260;99142;-67
2023/05/19 07:38:16;;;;;;;10.20;6.10;;;;;;;9.86;94.06;99434.52;105184;1268;98000;-66
2023/05/19 07:40:43;;;;;;;9.30;5.20;;;;;;;9.90;94.66;99434.36;105158;1266;99215;-68
2023/05/19 07:43:12;;;;;;;9.40;6.00;;;;;;;9.96;93.76;99435.17;105210;1266;97960;-67
2023/05/19 07:45:39;;;;;;;8.90;6.10;;;;;;;10.06;94.11;99432.34;105027;1260;108485;-69
2023/05/19 07:48:06;;;;;;;9.70;5.80;;;;;;;10.19;93.70;99435.85;105079;1253;97908;-67
2023/05/19 07:50:33;;;;;;;5.30;3.90;;;;;;;10.21;92.63;99440.60;105111;1266;97881;-68
2023/05/19 07:53:01;;;;;;;9.00;5.30;;;;;;;10.12;92.00;99445.13;105266;1254;97881;-66
2023/05/19 07:55:28;;;;;;;6.90;5.20;;;;;;;10.14;93.31;99450.59;105177;1260;98699;-66
2023/05/19 07:57:55;;;;;;;7.50;5.60;;;;;;;10.29;94.19;99452.73;105178;1268;99212;-66
2023/05/19 08:00:22;;;;;;;6.20;4.10;;;;;;;10.40;92.83;99448.30;105197;1260;97902;-67
2023/05/19 08:02:52;;;;;;;8.80;5.00;;;;;;;10.30;90.70;99455.28;105192;1276;99122;-67
2023/05/19 08:05:19;;;;;;;7.10;4.90;;;;;;;10.26;91.45;99453.19;104953;1262;111789;-66
2023/05/19 08:07:46;;;;;;;7.80;5.80;;;;;;;10.30;91.29;99453.15;105168;1267;97969;-66
2023/05/19 08:10:14;;;;;;;7.50;4.90;;;;;;;10.37;91.23;99454.83;105144;1260;99265;-66
2023/05/19 08:12:41;;;;;;;10.90;6.10;;;;;;;10.44;91.32;99456.89;105159;1267;98103;-66
2023/05/19 08:15:10;;;;;;;10.10;6.30;;;;;;;10.53;90.52;99452.84;104892;1271;97902;-66
2023/05/19 08:17:37;;;;;;;10.70;7.20;;;;;;;10.60;90.54;99452.05;105063;1254;111169;-67
2023/05/19 08:20:07;;;;;;;10.50;7.70;;;;;;;10.64;90.31;99455.66;105429;1270;97903;-67
2023/05/19 08:22:35;;;;;;;11.20;7.00;;;;;;;10.65;90.36;99453.02;105046;1262;107704;-66
2023/05/19 08:25:06;;;;;;;10.50;7.50;;;;;;;10.63;89.90;99455.46;104991;1269;97954;-66
2023/05/19 08:27:33;;;;;;;11.70;8.90;;;;;;;10.61;90.16;99456.85;104909;1263;99573;-67
2023/05/19 08:30:01;;;;;;;7.50;5.30;;;;;;;10.67;90.27;99456.44;105176;1260;97982;-66
2023/05/19 08:32:34;;;;;;;8.00;6.60;;;;;;;10.61;89.27;99456.97;105208;1266;97895;-67
2023/05/19 08:35:11;;;;;;;14.20;7.80;;;;;;;10.53;89.69;99458.16;105223;1258;108391;-67
2023/05/19 08:37:49;;;;;;;11.70;7.90;;;;;;;10.56;90.54;99454.82;105213;1260;97902;-67
2023/05/19 08:40:20;;;;;;;28.30;16.90;;;;;;;10.58;90.10;99458.05;105155;1257;99097;-67
2023/05/19 08:42:47;;;;;;;22.10;11.00;;;;;;;10.69;91.04;99458.45;105177;1259;97876;-67
2023/05/19 08:45:15;;;;;;;14.00;7.90;;;;;;;10.75;89.36;99463.52;105046;1276;99211;-68
2023/05/19 08:47:46;;;;;;;7.30;4.80;;;;;;;10.77;89.35;99468.20;105148;1258;108609;-67
2023/05/19 08:50:20;;;;;;;17.00;10.50;;;;;;;10.81;89.13;99467.70;105119;1266;99240;-67
2023/05/19 08:53:15;;;;;;;12.50;6.90;;;;;;;10.89;89.80;99464.44;104948;1255;97982;-67
2023/05/19 08:56:15;;;;;;;5.50;4.10;;;;;;;10.97;88.72;99466.66;105213;1258;112447;-68
2023/05/19 08:58:45;;;;;;;7.50;5.20;;;;;;;10.92;88.58;99465.88;105058;1264;98790;-68
2023/05/19 09:01:21;;;;;;;13.30;9.20;;;;;;;10.94;88.83;99468.41;104597;1264;107462;-67
2023/05/19 09:03:56;;;;;;;7.90;5.60;;;;;;;11.01;88.89;99467.98;105176;1266;98001;-69
2023/05/19 09:06:39;;;;;;;6.90;5.60;;;;;;;11.03;88.80;99469.17;105057;1267;98361;-68
2023/05/19 09:09:16;;;;;;;8.50;5.40;;;;;;;11.13;88.89;99470.67;105148;1266;111761;-67
2023/05/19 09:11:57;;;;;;;19.60;10.40;;;;;;;11.15;88.21;99465.65;105229;1257;98814;-67
2023/05/19 09:14:25;;;;;;;8.30;5.00;;;;;;;11.21;88.66;99470.27;105195;1254;108647;-67
2023/05/19 09:16:53;;;;;;;6.80;5.60;;;;;;;11.24;87.96;99468.02;105195;1260;97895;-67
2023/05/19 09:19:21;;;;;;;9.60;5.40;;;;;;;11.26;88.18;99467.01;105560;1272;97918;-67
2023/05/19 09:22:02;;;;;;;6.80;5.30;;;;;;;11.21;87.89;99468.84;104868;1263;111946;-67
2023/05/19 09:24:29;;;;;;;8.10;5.20;;;;;;;11.27;88.43;99463.54;105181;1257;99183;-69
2023/05/19 09:26:57;;;;;;;11.00;8.50;;;;;;;11.32;87.86;99458.86;105145;1259;97966;-67
2023/05/19 09:29:26;;;;;;;7.40;4.50;;;;;;;11.39;88.72;99456.59;105161;1267;97871;-66
2023/05/19 09:31:59;;;;;;;8.20;5.50;;;;;;;11.52;88.33;99457.66;105195;1264;99184;-67
2023/05/19 09:34:26;;;;;;;11.50;7.60;;;;;;;11.64;88.23;99455.48;105040;1272;111617;-69
2023/05/19 09:36:54;;;;;;;30.80;17.50;;;;;;;11.71;87.32;99453.55;105081;1260;97966;-68
2023/05/19 09:39:22;;;;;;;14.50;7.20;;;;;;;11.61;86.97;99453.11;105156;1253;99219;-68
2023/05/19 09:41:53;;;;;;;9.90;5.90;;;;;;;11.55;87.34;99452.05;105156;1259;97889;-70
2023/05/19 09:44:29;;;;;;;11.60;6.70;;;;;;;11.59;88.09;99453.70;105064;1268;99190;-66
2023/05/19 09:46:57;;;;;;;7.50;4.60;;;;;;;11.63;87.22;99453.42;105235;1267;111839;-67
2023/05/19 09:49:30;;;;;;;6.30;3.80;;;;;;;11.63;86.85;99453.13;105187;1268;99058;-67
2023/05/19 09:52:04;;;;;;;11.50;6.40;;;;;;;11.67;87.08;99453.55;105210;1259;108263;-66
2023/05/19 09:54:33;;;;;;;9.30;6.70;;;;;;;11.83;87.89;99450.69;104775;1262;99269;-66
2023/05/19 09:57:03;;;;;;;10.30;6.50;;;;;;;12.00;86.55;99449.77;105240;1267;99202;-63
2023/05/19 09:59:31;;;;;;;;;;;;;;;12.00;85.19;99449.58;105183;1266;112350;-66
2023/05/19 10:02:01;;;;;;;9.80;5.80;;;;;;;11.87;84.93;99447.65;104832;1264;98192;-67
2023/05/19 10:04:30;;;;;;;10.20;6.20;;;;;;;11.83;85.32;99447.02;105013;1267;107713;-67
2023/05/19 10:06:58;;;;;;;11.50;7.30;;;;;;;11.86;85.32;99445.48;105165;1267;99214;-66
2023/05/19 10:09:28;;;;;;;12.60;8.10;;;;;;;11.90;85.46;99447.23;104989;1260;99087;-66
2023/05/19 10:11:57;;;;;;;10.10;7.50;;;;;;;11.93;85.51;99445.63;105050;1254;112174;-66
2023/05/19 10:14:28;;;;;;;7.00;4.40;;;;;;;11.97;84.77;99441.27;104965;1266;99118;-66
2023/05/19 10:16:58;;;;;;;14.10;9.40;;;;;;;11.99;85.00;99443.05;105179;1269;108587;-67
2023/05/19 10:19:27;;;;;;;7.70;5.70;;;;;;;12.02;83.86;99444.92;105050;1257;97924;-67
2023/05/19 10:21:55;;;;;;;13.80;8.70;;;;;;;11.96;84.05;99446.78;105214;1261;98230;-67
2023/05/19 10:24:23;;;;;;;8.70;6.20;;;;;;;12.03;85.17;99452.91;105131;1258;97873;-66
2023/05/19 10:27:02;;;;;;;7.80;4.80;;;;;;;12.03;84.23;99452.64;104992;1257;98763;-67
2023/05/19 10:29:40;;;;;;;8.40;5.70;;;;;;;11.89;84.51;99454.32;104848;1271;107225;-67
2023/05/19 10:32:14;;;;;;;10.90;6.90;;;;;;;11.86;84.38;99454.70;105159;1268;97876;-67
2023/05/19 10:35:20;;;;;;;8.80;5.50;;;;;;;11.87;84.60;99448.26;104766;1261;98452;-66
2023/05/19 10:37:50;;;;;;;6.20;4.00;;;;;;;11.98;85.28;99452.74;105214;1257;111739;-63
2023/05/19 10:40:26;;;;;;;10.70;6.70;;;;;;;12.09;84.53;99451.45;104996;1266;99096;-63
2023/05/19 10:43:12;;;;;;;10.20;7.30;;;;;;;12.26;84.96;99451.08;104991;1263;107604;-64
2023/05/19 10:45:48;;;;;;;8.40;5.70;;;;;;;12.44;84.44;99447.05;105149;1267;98468;-64
2023/05/19 10:48:19;;;;;;;8.40;5.40;;;;;;;12.55;83.99;99445.92;105220;1267;98811;-62
2023/05/19 10:50:46;;;;;;;9.90;7.50;;;;;;;12.62;83.57;99438.23;105003;1260;112250;-63
2023/05/19 10:53:19;;;;;;;7.40;5.70;;;;;;;12.66;83.03;99436.83;104976;1264;99167;-63
2023/05/19 10:56:03;;;;;;;18.00;12.10;;;;;;;12.65;81.94;99432.02;104971;1258;107886;-63
2023/05/19 10:58:44;;;;;;;14.10;9.10;;;;;;;12.63;82.32;99430.19;104992;1257;97892;-63
2023/05/19 11:01:16;;;;;;;11.50;7.90;;;;;;;12.72;82.60;99427.53;105203;1266;97889;-66
2023/05/19 11:03:51;;;;;;;7.70;6.10;;;;;;;12.90;83.05;99429.48;105029;1264;111355;-66
2023/05/19 11:06:27;;;;;;;10.00;6.00;;;;;;;13.06;82.23;99432.47;104750;1270;98219;-63
2023/05/19 11:09:33;;;;;;;11.00;7.50;;;;;;;13.07;81.54;99429.14;105175;1257;108086;-63
2023/05/19 11:12:09;;;;;;;12.10;9.30;;;;;;;13.05;80.90;99421.98;104481;1286;98086;-63
2023/05/19 11:14:54;;;;;;;7.40;5.30;;;;;;;13.03;81.54;99423.75;104426;1277;99186;-63
2023/05/19 11:17:23;;;;;;;;;;;;;;;13.14;81.52;99429.75;104487;1276;112201;-64
2023/05/19 11:19:55;;;;;;;9.80;6.70;;;;;;;13.25;81.34;99431.38;104142;1271;99249;-64
2023/05/19 11:22:24;;;;;;;7.90;5.70;;;;;;;13.16;79.99;99430.38;104482;1268;108556;-64
2023/05/19 11:24:54;;;;;;;6.80;4.70;;;;;;;13.08;81.25;99427.09;104507;1275;98140;-64
2023/05/19 11:27:27;;;;;;;7.30;4.40;;;;;;;13.06;81.07;99432.08;104233;1270;98018;-63
2023/05/19 11:29:56;;;;;;;8.20;5.90;;;;;;;12.96;80.72;99432.91;104373;1270;112252;-64
2023/05/19 11:32:26;;;;;;;8.00;5.40;;;;;;;12.95;81.48;99432.58;104202;1270;98390;-64
2023/05/19 11:34:55;;;;;;;7.10;4.80;;;;;;;13.04;80.87;99433.79;104507;1268;108641;-64
2023/05/19 11:37:22;;;;;;;9.10;5.50;;;;;;;13.09;80.29;99437.95;104533;1276;98093;-63